createdAt,value
2019-05-11T00:00:11.087Z,6376.00
2019-05-11T00:01:11.080Z,5344.00
2019-05-11T00:02:11.061Z,6148.00
2019-05-11T00:03:11.044Z,6212.00
2019-05-11T00:04:11.032Z,6892.00
2019-05-11T00:05:11.022Z,7616.00
2019-05-11T00:06:11.018Z,7176.00
2019-05-11T00:07:11.000Z,5872.00
2019-05-11T00:08:10.995Z,6804.00
2019-05-11T00:09:10.979Z,8456.00
2019-05-11T00:10:10.972Z,9324.00
2019-05-11T00:11:10.960Z,10144.00
2019-05-11T00:12:10.960Z,9876.00
2019-05-11T00:13:10.940Z,9684.00
2019-05-11T00:14:10.933Z,6544.00
2019-05-11T00:15:10.925Z,6760.00
2019-05-11T00:16:10.896Z,6468.00
2019-05-11T00:17:10.902Z,7468.00
2019-05-11T00:18:10.897Z,7060.00
2019-05-11T00:19:10.877Z,7320.00
2019-05-11T00:20:10.880Z,7376.00
2019-05-11T00:21:10.862Z,6760.00
2019-05-11T00:22:10.844Z,6072.00
2019-05-11T00:23:10.838Z,5484.00
2019-05-11T00:24:10.833Z,5468.00
2019-05-11T00:25:10.815Z,5504.00
2019-05-11T00:26:10.809Z,5556.00
2019-05-11T00:27:10.821Z,5656.00
2019-05-11T00:28:10.815Z,5644.00
2019-05-11T00:29:10.772Z,5676.00
2019-05-11T00:30:10.806Z,5752.00
2019-05-11T00:31:10.752Z,6048.00
2019-05-11T00:32:10.743Z,6332.00
2019-05-11T00:33:10.733Z,6500.00
2019-05-11T00:34:10.715Z,6520.00
2019-05-11T00:35:10.707Z,6376.00
2019-05-11T00:36:10.702Z,6228.00
2019-05-11T00:37:10.712Z,6116.00
2019-05-11T00:38:10.679Z,5988.00
2019-05-11T00:39:10.667Z,5932.00
2019-05-11T00:40:14.339Z,5836.00
2019-05-11T00:41:10.659Z,5816.00
2019-05-11T00:42:10.646Z,5644.00
2019-05-11T00:43:10.637Z,5272.00
2019-05-11T00:44:10.623Z,5040.00
2019-05-11T00:45:10.598Z,5080.00
2019-05-11T00:46:10.587Z,4976.00
2019-05-11T00:47:10.603Z,4952.00
2019-05-11T00:48:10.593Z,4660.00
2019-05-11T00:49:10.568Z,4536.00
2019-05-11T00:50:10.569Z,4744.00
2019-05-11T00:51:10.543Z,4692.00
2019-05-11T00:52:10.546Z,4912.00
2019-05-11T00:53:10.545Z,5344.00
2019-05-11T00:54:10.516Z,5832.00
2019-05-11T00:55:10.505Z,6220.00
2019-05-11T00:56:10.500Z,6200.00
2019-05-11T00:57:10.500Z,5928.00
2019-05-11T00:58:10.475Z,5644.00
2019-05-11T00:59:21.390Z,5356.00
2019-05-11T01:00:10.459Z,5140.00
2019-05-11T01:01:10.449Z,4792.00
2019-05-11T01:02:10.431Z,4468.00
2019-05-11T01:03:10.435Z,4256.00
2019-05-11T01:04:10.425Z,4012.00
2019-05-11T01:05:10.399Z,3868.00
2019-05-11T01:06:10.400Z,3916.00
2019-05-11T01:07:10.396Z,4152.00
2019-05-11T01:08:10.365Z,4676.00
2019-05-11T01:09:10.362Z,4820.00
2019-05-11T01:10:22.907Z,4840.00
2019-05-11T01:11:10.350Z,4720.00
2019-05-11T01:12:10.343Z,4464.00
2019-05-11T01:13:10.314Z,4464.00
2019-05-11T01:14:10.322Z,4624.00
2019-05-11T01:15:10.310Z,4668.00
2019-05-11T01:16:10.302Z,4772.00
2019-05-11T01:17:10.271Z,4824.00
2019-05-11T01:18:10.271Z,4836.00
2019-05-11T01:19:10.279Z,4720.00
2019-05-11T01:20:10.244Z,4572.00
2019-05-11T01:21:10.229Z,4428.00
2019-05-11T01:22:10.217Z,4312.00
2019-05-11T01:23:10.206Z,4180.00
2019-05-11T01:24:10.254Z,4008.00
2019-05-11T01:25:10.204Z,3832.00
2019-05-11T01:26:10.190Z,3692.00
2019-05-11T01:27:10.176Z,3608.00
2019-05-11T01:28:10.151Z,3588.00
2019-05-11T01:29:10.157Z,3620.00
2019-05-11T01:30:10.147Z,3836.00
2019-05-11T01:31:10.120Z,4072.00
2019-05-11T01:32:10.131Z,4404.00
2019-05-11T01:33:10.102Z,4572.00
2019-05-11T01:34:10.090Z,4792.00
2019-05-11T01:35:10.103Z,4888.00
2019-05-11T01:36:10.073Z,5000.00
2019-05-11T01:38:10.064Z,5152.00
2019-05-11T01:39:10.048Z,5248.00
2019-05-11T01:40:10.036Z,5308.00
2019-05-11T01:41:10.033Z,5380.00
2019-05-11T01:42:10.029Z,5472.00
2019-05-11T01:43:10.000Z,5652.00
2019-05-11T01:44:09.990Z,5804.00
2019-05-11T01:45:09.996Z,5784.00
2019-05-11T01:46:09.969Z,5684.00
2019-05-11T01:47:09.995Z,5668.00
2019-05-11T01:48:09.969Z,5644.00
2019-05-11T01:49:09.954Z,5616.00
2019-05-11T01:50:09.926Z,5632.00
2019-05-11T01:51:09.921Z,5692.00
2019-05-11T01:52:09.924Z,5672.00
2019-05-11T01:53:09.901Z,5616.00
2019-05-11T01:54:09.894Z,5580.00
2019-05-11T01:55:09.892Z,5572.00
2019-05-11T01:56:09.872Z,5528.00
2019-05-11T01:57:09.862Z,5240.00
2019-05-11T01:58:09.854Z,5180.00
2019-05-11T01:59:09.838Z,5204.00
2019-05-11T02:00:09.910Z,5268.00
2019-05-11T02:01:09.814Z,5304.00
2019-05-11T02:02:09.810Z,5328.00
2019-05-11T02:03:09.804Z,5376.00
2019-05-11T02:04:09.789Z,5444.00
2019-05-11T02:05:09.779Z,5500.00
2019-05-11T02:06:09.771Z,5600.00
2019-05-11T02:07:09.787Z,5632.00
2019-05-11T02:08:09.737Z,5644.00
2019-05-11T02:09:09.736Z,5660.00
2019-05-11T02:10:09.720Z,5508.00
2019-05-11T02:11:16.017Z,5496.00
2019-05-11T02:12:09.717Z,5472.00
2019-05-11T02:13:09.722Z,5392.00
2019-05-11T02:14:09.678Z,5320.00
2019-05-11T02:15:09.673Z,5196.00
2019-05-11T02:16:09.678Z,5076.00
2019-05-11T02:17:09.657Z,5056.00
2019-05-11T02:18:09.653Z,5080.00
2019-05-11T02:19:09.637Z,5080.00
2019-05-11T02:20:09.636Z,5120.00
2019-05-11T02:21:09.639Z,5128.00
2019-05-11T02:22:09.614Z,5084.00
2019-05-11T02:23:09.594Z,5020.00
2019-05-11T02:24:10.080Z,4932.00
2019-05-11T02:25:09.594Z,4908.00
2019-05-11T02:26:09.562Z,4940.00
2019-05-11T02:27:09.555Z,4976.00
2019-05-11T02:28:09.551Z,4996.00
2019-05-11T02:29:09.536Z,5020.00
2019-05-11T02:30:09.540Z,5036.00
2019-05-11T02:31:09.517Z,5044.00
2019-05-11T02:32:30.505Z,5020.00
2019-05-11T02:33:09.494Z,4988.00
2019-05-11T02:34:09.469Z,4956.00
2019-05-11T02:36:09.459Z,4832.00
2019-05-11T02:37:09.451Z,4776.00
2019-05-11T02:38:09.438Z,4740.00
2019-05-11T02:39:09.440Z,4688.00
2019-05-11T02:40:09.431Z,4616.00
2019-05-11T02:41:09.406Z,4524.00
2019-05-11T02:42:09.399Z,4360.00
2019-05-11T02:43:09.380Z,4176.00
2019-05-11T02:44:09.383Z,4032.00
2019-05-11T02:45:09.367Z,3932.00
2019-05-11T02:46:09.352Z,3896.00
2019-05-11T02:47:09.335Z,3880.00
2019-05-11T02:48:09.336Z,3848.00
2019-05-11T02:49:09.334Z,3804.00
2019-05-11T02:50:09.310Z,3772.00
2019-05-11T02:51:09.304Z,3768.00
2019-05-11T02:52:09.302Z,3772.00
2019-05-11T02:53:09.290Z,3768.00
2019-05-11T02:54:09.283Z,3752.00
2019-05-11T02:55:09.263Z,3748.00
2019-05-11T02:56:09.341Z,3752.00
2019-05-11T02:57:09.231Z,3780.00
2019-05-11T02:58:09.260Z,3796.00
2019-05-11T02:59:09.226Z,3816.00
2019-05-11T03:00:09.231Z,3804.00
2019-05-11T03:01:09.188Z,3784.00
2019-05-11T03:02:09.188Z,3748.00
2019-05-11T03:03:09.194Z,3720.00
2019-05-11T03:04:09.659Z,3704.00
2019-05-11T03:05:09.157Z,3704.00
2019-05-11T03:06:09.158Z,3696.00
2019-05-11T03:07:09.135Z,3688.00
2019-05-11T03:08:09.119Z,3664.00
2019-05-11T03:09:09.127Z,3636.00
2019-05-11T03:10:09.109Z,3628.00
2019-05-11T03:12:09.090Z,3648.00
2019-05-11T03:13:09.077Z,3704.00
2019-05-11T03:14:09.067Z,3768.00
2019-05-11T03:15:09.060Z,3820.00
2019-05-11T03:16:09.043Z,3864.00
2019-05-11T03:17:09.700Z,3872.00
2019-05-11T03:18:09.051Z,3884.00
2019-05-11T03:19:09.021Z,3912.00
2019-05-11T03:20:09.014Z,3936.00
2019-05-11T03:21:08.996Z,3936.00
2019-05-11T03:22:08.997Z,3948.00
2019-05-11T03:23:09.041Z,3960.00
2019-05-11T03:24:08.971Z,3976.00
2019-05-11T03:25:08.966Z,3976.00
2019-05-11T03:26:08.937Z,3948.00
2019-05-11T03:27:08.927Z,3912.00
2019-05-11T03:28:08.911Z,3908.00
2019-05-11T03:29:08.899Z,3928.00
2019-05-11T03:30:08.889Z,3980.00
2019-05-11T03:31:08.939Z,4000.00
2019-05-11T03:32:08.870Z,4016.00
2019-05-11T03:33:08.875Z,4020.00
2019-05-11T03:34:08.861Z,4040.00
2019-05-11T03:35:08.856Z,4072.00
2019-05-11T03:36:08.841Z,4100.00
2019-05-11T03:38:08.820Z,4176.00
2019-05-11T03:39:08.798Z,4228.00
2019-05-11T03:40:08.791Z,4276.00
2019-05-11T03:41:08.852Z,4372.00
2019-05-11T03:42:14.603Z,4512.00
2019-05-11T03:43:08.789Z,4692.00
2019-05-11T03:44:08.759Z,4860.00
2019-05-11T03:45:08.730Z,4984.00
2019-05-11T03:46:08.725Z,5064.00
2019-05-11T03:47:08.726Z,5148.00
2019-05-11T03:48:08.729Z,5196.00
2019-05-11T03:49:08.704Z,5244.00
2019-05-11T03:50:08.683Z,5312.00
2019-05-11T03:51:08.741Z,5376.00
2019-05-11T03:52:08.658Z,5472.00
2019-05-11T03:53:08.664Z,5564.00
2019-05-11T03:54:08.652Z,5488.00
2019-05-11T03:56:08.634Z,5204.00
2019-05-11T03:57:08.658Z,5248.00
2019-05-11T03:58:08.612Z,5376.00
2019-05-11T03:59:08.589Z,5400.00
2019-05-11T04:00:08.690Z,5452.00
2019-05-11T04:01:08.599Z,5532.00
2019-05-11T04:03:08.556Z,5528.00
2019-05-11T04:04:08.537Z,5536.00
2019-05-11T04:05:08.531Z,5520.00
2019-05-11T04:07:08.523Z,5488.00
2019-05-11T04:08:08.521Z,5460.00
2019-05-11T04:09:08.485Z,5456.00
2019-05-11T04:10:08.480Z,5388.00
2019-05-11T04:11:08.477Z,5332.00
2019-05-11T04:12:08.451Z,5228.00
2019-05-11T04:13:08.983Z,5120.00
2019-05-11T04:14:08.423Z,5056.00
2019-05-11T04:15:08.472Z,4996.00
2019-05-11T04:16:08.419Z,4928.00
2019-05-11T04:18:08.409Z,4700.00
2019-05-11T04:19:08.374Z,4468.00
2019-05-11T04:20:08.387Z,4320.00
2019-05-11T04:21:08.367Z,4428.00
2019-05-11T04:22:08.365Z,4644.00
2019-05-11T04:23:08.329Z,5092.00
2019-05-11T04:24:08.341Z,5308.00
2019-05-11T04:25:08.329Z,5328.00
2019-05-11T04:26:08.321Z,5244.00
2019-05-11T04:27:08.287Z,5092.00
2019-05-11T04:28:08.301Z,4920.00
2019-05-11T04:29:08.293Z,4752.00
2019-05-11T04:30:08.267Z,4552.00
2019-05-11T04:31:08.257Z,4436.00
2019-05-11T04:32:08.243Z,4420.00
2019-05-11T04:33:08.227Z,4476.00
2019-05-11T04:35:08.226Z,4652.00
2019-05-11T04:36:09.243Z,4732.00
2019-05-11T04:37:08.238Z,4816.00
2019-05-11T04:38:08.197Z,4872.00
2019-05-11T04:39:08.181Z,4856.00
2019-05-11T04:40:08.173Z,4896.00
2019-05-11T04:43:08.231Z,5052.00
2019-05-11T04:44:08.135Z,5064.00
2019-05-11T04:45:08.133Z,5060.00
2019-05-11T04:46:08.101Z,5048.00
2019-05-11T04:47:21.616Z,4984.00
2019-05-11T04:48:08.666Z,4852.00
2019-05-11T04:49:08.077Z,4784.00
2019-05-11T04:50:08.058Z,4896.00
2019-05-11T04:51:08.043Z,5088.00
2019-05-11T04:52:08.037Z,5200.00
2019-05-11T04:53:08.885Z,5228.00
2019-05-11T04:54:08.014Z,5192.00
2019-05-11T04:55:08.013Z,5168.00
2019-05-11T04:56:08.000Z,5116.00
2019-05-11T04:57:08.066Z,5096.00
2019-05-11T04:58:07.992Z,5080.00
2019-05-11T04:59:07.980Z,5060.00
2019-05-11T05:00:07.956Z,5068.00
2019-05-11T05:01:07.996Z,5116.00
2019-05-11T05:02:07.926Z,5120.00
2019-05-11T05:03:07.942Z,5080.00
2019-05-11T05:05:07.913Z,4968.00
2019-05-11T05:06:22.122Z,4928.00
2019-05-11T05:07:10.816Z,4856.00
2019-05-11T05:08:09.902Z,4780.00
2019-05-11T05:09:07.916Z,4692.00
2019-05-11T05:10:07.852Z,4652.00
2019-05-11T05:11:07.845Z,4656.00
2019-05-11T05:12:08.470Z,4688.00
2019-05-11T05:13:10.765Z,4712.00
2019-05-11T05:14:08.674Z,4728.00
2019-05-11T05:16:08.610Z,4720.00
2019-05-11T05:17:07.797Z,4700.00
2019-05-11T05:18:07.777Z,4656.00
2019-05-11T05:19:07.777Z,4604.00
2019-05-11T05:20:07.762Z,4564.00
2019-05-11T05:21:07.750Z,4504.00
2019-05-11T05:22:07.741Z,4468.00
2019-05-11T05:23:07.729Z,4448.00
2019-05-11T05:24:07.724Z,4452.00
2019-05-11T05:25:07.699Z,4472.00
2019-05-11T05:26:07.711Z,4508.00
2019-05-11T05:27:07.677Z,4524.00
2019-05-11T05:28:07.681Z,4532.00
2019-05-11T05:29:07.726Z,4504.00
2019-05-11T05:30:07.850Z,4460.00
2019-05-11T05:31:07.636Z,4440.00
2019-05-11T05:32:07.638Z,4452.00
2019-05-11T05:33:07.784Z,4464.00
2019-05-11T05:34:07.601Z,4476.00
2019-05-11T05:35:07.596Z,4484.00
2019-05-11T05:36:08.161Z,4508.00
2019-05-11T05:37:07.591Z,4548.00
2019-05-11T05:38:07.571Z,4596.00
2019-05-11T05:39:09.768Z,4620.00
2019-05-11T05:41:07.535Z,4616.00
2019-05-11T05:42:07.577Z,4616.00
2019-05-11T05:43:07.526Z,4636.00
2019-05-11T05:44:08.003Z,4624.00
2019-05-11T05:45:07.491Z,4620.00
2019-05-11T05:46:07.480Z,4628.00
2019-05-11T05:47:07.462Z,4616.00
2019-05-11T05:48:07.451Z,4560.00
2019-05-11T05:49:07.467Z,4528.00
2019-05-11T05:50:07.448Z,4496.00
2019-05-11T05:51:07.453Z,4504.00
2019-05-11T05:52:07.709Z,4528.00
2019-05-11T05:53:07.431Z,4548.00
2019-05-11T05:54:07.401Z,4576.00
2019-05-11T05:55:07.422Z,4592.00
2019-05-11T05:56:07.382Z,4580.00
2019-05-11T05:57:08.173Z,4580.00
2019-05-11T05:58:07.372Z,4596.00
2019-05-11T05:59:08.272Z,4628.00
2019-05-11T06:00:07.337Z,4660.00
2019-05-11T06:01:10.120Z,4644.00
2019-05-11T06:02:07.328Z,4584.00
2019-05-11T06:03:07.314Z,4520.00
2019-05-11T06:04:07.306Z,4448.00
2019-05-11T06:05:07.295Z,4388.00
2019-05-11T06:06:07.301Z,4352.00
2019-05-11T06:07:07.285Z,4304.00
2019-05-11T06:08:07.254Z,4252.00
2019-05-11T06:09:07.251Z,4212.00
2019-05-11T06:10:07.245Z,4204.00
2019-05-11T06:11:07.214Z,4168.00
2019-05-11T06:12:07.229Z,4164.00
2019-05-11T06:14:07.204Z,4136.00
2019-05-11T06:15:07.174Z,4152.00
2019-05-11T06:16:07.168Z,4160.00
2019-05-11T06:17:07.173Z,4164.00
2019-05-11T06:18:07.149Z,4168.00
2019-05-11T06:19:07.159Z,4208.00
2019-05-11T06:20:08.368Z,4224.00
2019-05-11T06:21:07.134Z,4304.00
2019-05-11T06:22:07.103Z,4360.00
2019-05-11T06:23:07.115Z,4420.00
2019-05-11T06:24:08.333Z,4396.00
2019-05-11T06:25:07.091Z,4364.00
2019-05-11T06:26:07.140Z,4368.00
2019-05-11T06:27:07.048Z,4364.00
2019-05-11T06:28:07.042Z,4308.00
2019-05-11T06:29:07.041Z,4312.00
2019-05-11T06:30:07.045Z,4244.00
2019-05-11T06:31:07.648Z,4180.00
2019-05-11T06:32:07.019Z,4124.00
2019-05-11T06:33:06.998Z,4096.00
2019-05-11T06:34:06.990Z,4048.00
2019-05-11T06:35:06.981Z,3988.00
2019-05-11T06:37:06.960Z,3844.00
2019-05-11T06:38:06.940Z,3832.00
2019-05-11T06:39:06.940Z,3800.00
2019-05-11T06:40:06.916Z,3820.00
2019-05-11T06:41:06.916Z,3868.00
2019-05-11T06:43:06.899Z,3912.00
2019-05-11T06:44:06.888Z,3940.00
2019-05-11T06:45:06.878Z,3924.00
2019-05-11T06:46:06.886Z,3864.00
2019-05-11T06:47:06.853Z,3796.00
2019-05-11T06:48:06.865Z,3736.00
2019-05-11T06:49:06.836Z,3700.00
2019-05-11T06:50:06.826Z,3640.00
2019-05-11T06:51:06.815Z,3612.00
2019-05-11T06:52:06.806Z,3560.00
2019-05-11T06:53:06.800Z,3580.00
2019-05-11T06:54:06.804Z,3528.00
2019-05-11T06:55:06.809Z,3444.00
2019-05-11T06:56:07.947Z,3312.00
2019-05-11T06:57:06.760Z,3200.00
2019-05-11T06:58:06.759Z,3248.00
2019-05-11T06:59:06.743Z,3296.00
2019-05-11T07:00:08.090Z,3308.00
2019-05-11T07:01:06.926Z,3344.00
2019-05-11T07:02:06.701Z,3324.00
2019-05-11T07:03:06.678Z,3272.00
2019-05-11T07:04:06.697Z,3224.00
2019-05-11T07:05:12.456Z,3188.00
2019-05-11T07:06:06.661Z,3164.00
2019-05-11T07:07:06.656Z,3104.00
2019-05-11T07:08:06.672Z,2984.00
2019-05-11T07:09:06.614Z,2840.00
2019-05-11T07:10:06.640Z,2840.00
2019-05-11T07:11:07.291Z,2948.00
2019-05-11T07:12:06.651Z,3160.00
2019-05-11T07:13:06.577Z,3404.00
2019-05-11T07:14:20.146Z,3464.00
2019-05-11T07:15:06.555Z,3368.00
2019-05-11T07:16:06.559Z,3260.00
2019-05-11T07:17:06.559Z,3164.00
2019-05-11T07:18:06.538Z,3036.00
2019-05-11T07:19:06.512Z,2940.00
2019-05-11T07:20:06.499Z,2812.00
2019-05-11T07:21:06.489Z,2700.00
2019-05-11T07:22:06.489Z,2648.00
2019-05-11T07:23:06.476Z,2712.00
2019-05-11T07:24:06.457Z,2828.00
2019-05-11T07:25:06.466Z,2948.00
2019-05-11T07:26:06.437Z,3096.00
2019-05-11T07:27:06.450Z,3236.00
2019-05-11T07:28:06.424Z,3344.00
2019-05-11T07:29:06.419Z,3356.00
2019-05-11T07:30:06.438Z,3316.00
2019-05-11T07:31:06.388Z,3244.00
2019-05-11T07:32:19.948Z,3188.00
2019-05-11T07:33:08.088Z,3112.00
2019-05-11T07:34:08.103Z,3032.00
2019-05-11T07:35:08.407Z,2920.00
2019-05-11T07:36:08.307Z,2792.00
2019-05-11T07:37:08.235Z,2692.00
2019-05-11T07:38:08.300Z,2660.00
2019-05-11T07:39:08.372Z,2664.00
2019-05-11T07:40:08.249Z,2696.00
2019-05-11T07:41:08.603Z,2784.00
2019-05-11T07:42:07.747Z,2872.00
2019-05-11T07:43:09.215Z,2960.00
2019-05-11T07:44:06.275Z,3036.00
2019-05-11T07:45:08.684Z,3044.00
2019-05-11T07:46:07.838Z,3048.00
2019-05-11T07:48:08.039Z,3000.00
2019-05-11T07:49:08.583Z,2976.00
2019-05-11T07:50:08.211Z,2892.00
2019-05-11T07:51:08.838Z,2824.00
2019-05-11T07:52:07.797Z,2688.00
2019-05-11T07:53:08.149Z,2568.00
2019-05-11T07:54:08.266Z,2564.00
2019-05-11T07:55:08.297Z,2628.00
2019-05-11T07:56:08.200Z,2656.00
2019-05-11T07:57:07.927Z,2656.00
2019-05-11T07:59:12.975Z,2724.00
2019-05-11T08:00:08.099Z,2728.00
2019-05-11T08:01:08.500Z,2732.00
2019-05-11T08:03:06.068Z,2800.00
2019-05-11T08:04:07.834Z,2800.00
2019-05-11T08:05:08.502Z,2700.00
2019-05-11T08:06:06.030Z,2520.00
2019-05-11T08:07:07.706Z,2360.00
2019-05-11T08:08:05.963Z,2352.00
2019-05-11T08:09:08.232Z,2440.00
2019-05-11T08:10:08.032Z,2580.00
2019-05-11T08:11:08.113Z,2736.00
2019-05-11T08:12:05.970Z,2832.00
2019-05-11T08:13:05.966Z,2892.00
2019-05-11T08:14:07.764Z,2924.00
2019-05-11T08:15:11.898Z,2904.00
2019-05-11T08:16:08.117Z,2864.00
2019-05-11T08:17:08.377Z,2856.00
2019-05-11T08:18:08.368Z,2860.00
2019-05-11T08:19:08.077Z,2852.00
2019-05-11T08:20:07.839Z,2848.00
2019-05-11T08:21:05.905Z,2836.00
2019-05-11T08:22:05.857Z,2828.00
2019-05-11T08:23:05.903Z,2824.00
2019-05-11T08:24:05.843Z,2820.00
2019-05-11T08:25:05.857Z,2796.00
2019-05-11T08:26:08.205Z,2756.00
2019-05-11T08:27:08.220Z,2736.00
2019-05-11T08:28:11.037Z,2712.00
2019-05-11T08:29:07.997Z,2704.00
2019-05-11T08:30:05.791Z,2684.00
2019-05-11T08:31:08.059Z,2684.00
2019-05-11T08:32:08.046Z,2668.00
2019-05-11T08:33:05.751Z,2648.00
2019-05-11T08:34:05.789Z,2632.00
2019-05-11T08:35:05.720Z,2632.00
2019-05-11T08:36:08.374Z,2644.00
2019-05-11T08:37:05.703Z,2652.00
2019-05-11T08:38:08.622Z,2680.00
2019-05-11T08:39:14.464Z,2724.00
2019-05-11T08:40:07.733Z,2768.00
2019-05-11T08:41:07.888Z,2808.00
2019-05-11T08:43:05.665Z,2848.00
2019-05-11T08:44:05.620Z,2888.00
2019-05-11T08:45:19.385Z,2904.00
2019-05-11T08:46:07.810Z,2876.00
2019-05-11T08:47:05.590Z,2848.00
2019-05-11T08:48:07.987Z,2820.00
2019-05-11T08:50:07.877Z,2772.00
2019-05-11T08:51:05.561Z,2748.00
2019-05-11T08:52:07.999Z,2748.00
2019-05-11T08:53:05.549Z,2732.00
2019-05-11T08:54:09.006Z,2664.00
2019-05-11T08:55:05.517Z,2552.00
2019-05-11T08:56:11.109Z,2412.00
2019-05-11T08:57:08.000Z,2288.00
2019-05-11T08:58:07.921Z,2208.00
2019-05-11T08:59:07.719Z,2156.00
2019-05-11T09:00:08.399Z,2124.00
2019-05-11T09:01:05.470Z,2132.00
2019-05-11T09:02:08.845Z,2264.00
2019-05-11T09:03:05.450Z,2476.00
2019-05-11T09:05:07.965Z,2676.00
2019-05-11T09:06:05.401Z,2660.00
2019-05-11T09:07:07.737Z,2604.00
2019-05-11T09:08:05.395Z,2516.00
2019-05-11T09:09:05.371Z,2432.00
2019-05-11T09:10:07.961Z,2344.00
2019-05-11T09:11:08.436Z,2308.00
2019-05-11T09:12:07.644Z,2348.00
2019-05-11T09:13:05.313Z,2404.00
2019-05-11T09:14:05.314Z,2404.00
2019-05-11T09:16:07.311Z,2204.00
2019-05-11T09:17:07.663Z,2052.00
2019-05-11T09:18:05.255Z,1940.00
2019-05-11T09:19:05.270Z,1904.00
2019-05-11T09:20:05.256Z,1936.00
2019-05-11T09:21:05.242Z,2052.00
2019-05-11T09:23:05.232Z,2408.00
2019-05-11T09:24:05.206Z,2432.00
2019-05-11T09:25:08.543Z,2356.00
2019-05-11T09:26:05.175Z,2284.00
2019-05-11T09:27:07.560Z,2312.00
2019-05-11T09:28:05.161Z,2376.00
2019-05-11T09:29:05.886Z,2392.00
2019-05-11T09:30:05.136Z,2344.00
2019-05-11T09:31:05.516Z,2244.00
2019-05-11T09:32:08.636Z,2168.00
2019-05-11T09:33:05.284Z,2120.00
2019-05-11T09:34:05.087Z,2096.00
2019-05-11T09:35:05.098Z,2064.00
2019-05-11T09:36:05.067Z,2016.00
2019-05-11T09:37:05.084Z,1944.00
2019-05-11T09:38:05.048Z,1856.00
2019-05-11T09:39:05.173Z,1788.00
2019-05-11T09:40:05.021Z,1744.00
2019-05-11T09:41:20.991Z,1724.00
2019-05-11T09:42:07.897Z,1716.00
2019-05-11T09:43:04.998Z,1700.00
2019-05-11T09:44:04.989Z,1668.00
2019-05-11T09:45:04.931Z,1652.00
2019-05-11T09:46:04.961Z,1664.00
2019-05-11T09:47:04.956Z,1684.00
2019-05-11T09:48:04.937Z,1688.00
2019-05-11T09:49:04.930Z,1680.00
2019-05-11T09:50:05.812Z,1680.00
2019-05-11T09:51:07.784Z,1684.00
2019-05-11T09:52:04.912Z,1692.00
2019-05-11T09:53:04.898Z,1692.00
2019-05-11T09:54:04.890Z,1708.00
2019-05-11T09:55:04.915Z,1716.00
2019-05-11T09:56:04.859Z,1704.00
2019-05-11T09:57:04.855Z,1676.00
2019-05-11T09:58:04.844Z,1640.00
2019-05-11T09:59:04.844Z,1612.00
2019-05-11T10:00:04.820Z,1592.00
2019-05-11T10:01:04.802Z,1580.00
2019-05-11T10:02:04.811Z,1584.00
2019-05-11T10:03:04.802Z,1608.00
2019-05-11T10:04:04.787Z,1640.00
2019-05-11T10:05:04.779Z,1676.00
2019-05-11T10:06:04.758Z,1696.00
2019-05-11T10:07:04.744Z,1696.00
2019-05-11T10:08:04.757Z,1680.00
2019-05-11T10:09:05.354Z,1668.00
2019-05-11T10:10:04.704Z,1656.00
2019-05-11T10:11:04.705Z,1648.00
2019-05-11T10:12:04.698Z,1644.00
2019-05-11T10:13:05.202Z,1652.00
2019-05-11T10:14:04.694Z,1660.00
2019-05-11T10:15:04.650Z,1668.00
2019-05-11T10:16:08.153Z,1672.00
2019-05-11T10:17:04.696Z,1656.00
2019-05-11T10:18:04.644Z,1640.00
2019-05-11T10:19:05.329Z,1604.00
2019-05-11T10:20:04.626Z,1556.00
2019-05-11T10:21:04.609Z,1504.00
2019-05-11T10:22:04.602Z,1460.00
2019-05-11T10:23:04.587Z,1416.00
2019-05-11T10:24:04.578Z,1380.00
2019-05-11T10:25:04.567Z,1356.00
2019-05-11T10:26:04.550Z,1348.00
2019-05-11T10:27:04.532Z,1340.00
2019-05-11T10:28:04.524Z,1348.00
2019-05-11T10:29:07.716Z,1352.00
2019-05-11T10:30:04.504Z,1352.00
2019-05-11T10:31:04.481Z,1344.00
2019-05-11T10:32:04.514Z,1320.00
2019-05-11T10:33:04.471Z,1292.00
2019-05-11T10:34:04.453Z,1248.00
2019-05-11T10:35:04.449Z,1204.00
2019-05-11T10:36:04.424Z,1168.00
2019-05-11T10:37:04.435Z,1128.00
2019-05-11T10:38:04.416Z,1092.00
2019-05-11T10:39:04.390Z,1060.00
2019-05-11T10:40:04.409Z,1044.00
2019-05-11T10:41:04.420Z,1032.00
2019-05-11T10:42:05.346Z,1024.00
2019-05-11T10:43:04.358Z,1024.00
2019-05-11T10:44:04.355Z,1012.00
2019-05-11T10:45:04.350Z,992.00
2019-05-11T10:46:16.151Z,980.00
2019-05-11T10:47:04.323Z,960.00
2019-05-11T10:48:04.302Z,932.00
2019-05-11T10:49:04.289Z,904.00
2019-05-11T10:50:04.277Z,876.00
2019-05-11T10:51:04.281Z,848.00
2019-05-11T10:52:04.268Z,820.00
2019-05-11T10:53:04.253Z,796.00
2019-05-11T10:54:04.246Z,780.00
2019-05-11T10:55:04.227Z,760.00
2019-05-11T10:56:04.217Z,748.00
2019-05-11T10:57:04.205Z,732.00
2019-05-11T10:58:04.205Z,720.00
2019-05-11T10:59:04.192Z,700.00
2019-05-11T11:00:04.169Z,688.00
2019-05-11T11:01:04.183Z,676.00
2019-05-11T11:02:04.151Z,664.00
2019-05-11T11:03:04.146Z,656.00
2019-05-11T11:04:04.136Z,644.00
2019-05-11T11:05:04.123Z,632.00
2019-05-11T11:06:04.123Z,620.00
2019-05-11T11:07:04.105Z,608.00
2019-05-11T11:08:04.094Z,596.00
2019-05-11T11:09:04.343Z,588.00
2019-05-11T11:10:04.063Z,572.00
2019-05-11T11:11:04.858Z,556.00
2019-05-11T11:12:04.035Z,540.00
2019-05-11T11:13:04.032Z,524.00
2019-05-11T11:14:04.032Z,508.00
2019-05-11T11:15:04.013Z,496.00
2019-05-11T11:16:04.006Z,484.00
2019-05-11T11:17:03.988Z,472.00
2019-05-11T11:18:03.973Z,456.00
2019-05-11T11:19:03.960Z,448.00
2019-05-11T11:20:03.946Z,436.00
2019-05-11T11:21:03.945Z,428.00
2019-05-11T11:22:31.827Z,420.00
2019-05-11T11:23:03.966Z,404.00
2019-05-11T11:24:03.911Z,396.00
2019-05-11T11:25:03.917Z,384.00
2019-05-11T11:26:03.951Z,376.00
2019-05-11T11:27:03.880Z,360.00
2019-05-11T11:28:03.909Z,348.00
2019-05-11T11:29:03.865Z,336.00
2019-05-11T11:30:03.862Z,324.00
2019-05-11T11:31:04.647Z,312.00
2019-05-11T11:32:03.823Z,296.00
2019-05-11T11:33:03.807Z,288.00
2019-05-11T11:34:03.811Z,272.00
2019-05-11T11:35:03.804Z,260.00
2019-05-11T11:36:03.787Z,248.00
2019-05-11T11:37:04.259Z,236.00
2019-05-11T11:38:03.769Z,232.00
2019-05-11T11:39:03.735Z,224.00
2019-05-11T11:40:03.731Z,216.00
2019-05-11T11:41:03.722Z,208.00
2019-05-11T11:42:03.732Z,200.00
2019-05-11T11:43:03.702Z,196.00
2019-05-11T11:44:03.698Z,192.00
2019-05-11T11:45:03.683Z,180.00
2019-05-11T11:46:03.673Z,176.00
2019-05-11T11:47:03.660Z,168.00
2019-05-11T11:48:03.648Z,160.00
2019-05-11T11:49:03.640Z,152.00
2019-05-11T11:50:03.631Z,148.00
2019-05-11T11:51:03.616Z,144.00
2019-05-11T11:52:03.618Z,140.00
2019-05-11T11:53:03.591Z,136.00
2019-05-11T11:54:03.591Z,128.00
2019-05-11T11:55:03.605Z,128.00
2019-05-11T11:56:03.574Z,124.00
2019-05-11T11:57:03.547Z,120.00
2019-05-11T11:58:03.528Z,120.00
2019-05-11T11:59:03.522Z,112.00
2019-05-11T12:00:03.518Z,108.00
2019-05-11T12:01:03.509Z,108.00
2019-05-11T12:02:03.490Z,100.00
2019-05-11T12:03:03.474Z,100.00
2019-05-11T12:04:03.483Z,96.00
2019-05-11T12:05:03.451Z,92.00
2019-05-11T12:06:03.444Z,88.00
2019-05-11T12:07:03.447Z,84.00
2019-05-11T12:08:03.435Z,84.00
2019-05-11T12:09:03.414Z,76.00
2019-05-11T12:10:03.415Z,76.00
2019-05-11T12:11:03.386Z,72.00
2019-05-11T12:12:03.380Z,68.00
2019-05-11T12:13:03.371Z,68.00
2019-05-11T12:14:03.360Z,64.00
2019-05-11T12:15:03.348Z,60.00
2019-05-11T12:16:03.338Z,56.00
2019-05-11T12:17:07.754Z,56.00
2019-05-11T12:18:03.314Z,56.00
2019-05-11T12:19:05.290Z,52.00
2019-05-11T12:20:03.288Z,52.00
2019-05-11T12:21:03.291Z,52.00
2019-05-11T12:22:03.280Z,48.00
2019-05-11T12:23:03.259Z,44.00
2019-05-11T12:24:03.254Z,40.00
2019-05-11T12:25:03.253Z,40.00
2019-05-11T12:26:03.235Z,40.00
2019-05-11T12:27:03.214Z,40.00
2019-05-11T12:29:03.202Z,36.00
2019-05-11T12:30:03.238Z,36.00
2019-05-11T12:31:03.203Z,32.00
2019-05-11T12:32:03.812Z,36.00
2019-05-11T12:33:03.162Z,32.00
2019-05-11T12:34:03.129Z,32.00
2019-05-11T12:35:03.116Z,32.00
2019-05-11T12:36:03.125Z,32.00